sensor_id;sensor_type;location;lat;lon;timestamp;pressure;altitude;pressure_sealevel;temperature;humidity
7474;BME280;3778;42.572;23.426;2023-01-27T00:02:13;95814.50;;;-146.70;91.53
7474;BME280;3778;42.572;23.426;2023-01-27T00:04:39;95849.94;;;-146.70;91.50
7474;BME280;3778;42.572;23.426;2023-01-27T00:07:06;95779.06;;;-146.70;91.53
7474;BME280;3778;42.572;23.426;2023-01-27T00:09:33;95816.59;;;-146.70;91.63
7474;BME280;3778;42.572;23.426;2023-01-27T00:11:59;95818.69;;;-146.70;91.64
7474;BME280;3778;42.572;23.426;2023-01-27T00:14:43;95833.28;;;-146.70;91.73
7474;BME280;3778;42.572;23.426;2023-01-27T00:17:10;95820.75;;;-146.70;91.64
7474;BME280;3778;42.572;23.426;2023-01-27T00:19:38;95822.84;;;-146.70;91.74
7474;BME280;3778;42.572;23.426;2023-01-27T00:22:09;95862.47;;;-146.70;91.77
7474;BME280;3778;42.572;23.426;2023-01-27T00:24:53;95837.44;;;-146.70;91.88
7474;BME280;3778;42.572;23.426;2023-01-27T00:27:19;95833.28;;;-146.70;91.79
7474;BME280;3778;42.572;23.426;2023-01-27T00:29:46;95781.16;;;-146.70;91.66
7474;BME280;3778;42.572;23.426;2023-01-27T00:32:13;95856.19;;;-146.70;91.81
7474;BME280;3778;42.572;23.426;2023-01-27T00:34:58;95845.78;;;-146.70;91.86
7474;BME280;3778;42.572;23.426;2023-01-27T00:37:25;95810.34;;;-146.70;91.75
7474;BME280;3778;42.572;23.426;2023-01-27T00:39:51;95806.16;;;-146.70;91.66
7474;BME280;3778;42.572;23.426;2023-01-27T00:42:18;95804.09;;;-146.70;91.81
7474;BME280;3778;42.572;23.426;2023-01-27T00:44:45;95879.13;;;-146.70;91.90
7474;BME280;3778;42.572;23.426;2023-01-27T00:47:32;95827.03;;;-146.70;91.73
7474;BME280;3778;42.572;23.426;2023-01-27T00:50:00;95883.31;;;-146.70;91.61
7474;BME280;3778;42.572;23.426;2023-01-27T00:52:27;95835.34;;;-146.70;91.65
7474;BME280;3778;42.572;23.426;2023-01-27T00:54:53;95808.25;;;-146.70;91.55
7474;BME280;3778;42.572;23.426;2023-01-27T00:57:20;95816.59;;;-146.70;91.56
7474;BME280;3778;42.572;23.426;2023-01-27T00:59:47;95837.44;;;-146.70;91.50
7474;BME280;3778;42.572;23.426;2023-01-27T01:02:13;95852.03;;;-146.70;91.44
7474;BME280;3778;42.572;23.426;2023-01-27T01:04:40;95858.28;;;-146.70;91.46
7474;BME280;3778;42.572;23.426;2023-01-27T01:07:08;95897.91;;;-146.70;91.35
7474;BME280;3778;42.572;23.426;2023-01-27T01:09:35;95795.75;;;-146.70;91.55
7474;BME280;3778;42.572;23.426;2023-01-27T01:12:02;95860.38;;;-146.70;91.46
7474;BME280;3778;42.572;23.426;2023-01-27T01:14:28;95835.34;;;-146.70;91.54
7474;BME280;3778;42.572;23.426;2023-01-27T01:16:55;95797.84;;;-146.70;91.41
7474;BME280;3778;42.572;23.426;2023-01-27T01:19:22;95874.97;;;-146.70;91.43
7474;BME280;3778;42.572;23.426;2023-01-27T01:21:48;95852.03;;;-146.70;91.49
7474;BME280;3778;42.572;23.426;2023-01-27T01:24:17;95868.72;;;-146.70;91.56
7474;BME280;3778;42.572;23.426;2023-01-27T01:26:43;95827.03;;;-146.70;91.50
7474;BME280;3778;42.572;23.426;2023-01-27T01:29:10;95854.13;;;-146.70;91.68
7474;BME280;3778;42.572;23.426;2023-01-27T01:31:37;95883.31;;;-146.70;91.55
7474;BME280;3778;42.572;23.426;2023-01-27T01:34:03;95849.94;;;-146.70;91.50
7474;BME280;3778;42.572;23.426;2023-01-27T01:36:30;95835.34;;;-146.70;91.55
7474;BME280;3778;42.572;23.426;2023-01-27T01:38:57;95793.66;;;-146.70;91.66
7474;BME280;3778;42.572;23.426;2023-01-27T01:41:25;95845.78;;;-146.70;91.53
7474;BME280;3778;42.572;23.426;2023-01-27T01:43:52;95862.47;;;-146.70;91.71
7474;BME280;3778;42.572;23.426;2023-01-27T01:46:19;95789.50;;;-146.70;91.67
7474;BME280;3778;42.572;23.426;2023-01-27T01:48:47;95808.25;;;-146.70;91.72
7474;BME280;3778;42.572;23.426;2023-01-27T01:51:20;95820.75;;;-146.70;91.58
7474;BME280;3778;42.572;23.426;2023-01-27T01:53:52;95810.34;;;-146.70;91.70
7474;BME280;3778;42.572;23.426;2023-01-27T01:56:23;95816.59;;;-146.70;91.53
7474;BME280;3778;42.572;23.426;2023-01-27T01:58:52;95831.19;;;-146.70;91.56
7474;BME280;3778;42.572;23.426;2023-01-27T02:01:21;95895.81;;;-146.70;91.55
7474;BME280;3778;42.572;23.426;2023-01-27T02:03:50;95854.13;;;-146.70;91.60
7474;BME280;3778;42.572;23.426;2023-01-27T02:06:19;95845.78;;;-146.70;91.58
7474;BME280;3778;42.572;23.426;2023-01-27T02:08:48;95862.47;;;-146.70;91.50
7474;BME280;3778;42.572;23.426;2023-01-27T02:11:16;95820.75;;;-146.70;91.48
7474;BME280;3778;42.572;23.426;2023-01-27T02:13:43;95837.44;;;-146.70;91.47
7474;BME280;3778;42.572;23.426;2023-01-27T02:16:11;95818.69;;;-146.70;91.48
7474;BME280;3778;42.572;23.426;2023-01-27T02:18:39;95956.25;;;-146.70;91.60
7474;BME280;3778;42.572;23.426;2023-01-27T02:21:07;95856.19;;;-146.70;91.66
7474;BME280;3778;42.572;23.426;2023-01-27T02:23:48;95808.25;;;-146.70;91.55
7474;BME280;3778;42.572;23.426;2023-01-27T02:26:22;95808.25;;;-146.70;91.67
7474;BME280;3778;42.572;23.426;2023-01-27T02:28:53;95808.25;;;-146.70;91.80
7474;BME280;3778;42.572;23.426;2023-01-27T02:31:20;95822.84;;;-146.70;91.77
7474;BME280;3778;42.572;23.426;2023-01-27T02:33:47;95789.50;;;-146.70;91.91
7474;BME280;3778;42.572;23.426;2023-01-27T02:36:15;95866.63;;;-146.70;92.06
7474;BME280;3778;42.572;23.426;2023-01-27T02:38:45;95835.34;;;-146.70;92.28
7474;BME280;3778;42.572;23.426;2023-01-27T02:41:16;95827.03;;;-146.70;92.36
7474;BME280;3778;42.572;23.426;2023-01-27T02:43:46;95929.16;;;-146.70;92.50
7474;BME280;3778;42.572;23.426;2023-01-27T02:46:13;95854.13;;;-146.70;92.55
7474;BME280;3778;42.572;23.426;2023-01-27T02:48:39;95845.78;;;-146.70;92.58
7474;BME280;3778;42.572;23.426;2023-01-27T02:51:06;95837.44;;;-146.70;92.63
7474;BME280;3778;42.572;23.426;2023-01-27T02:53:33;95854.13;;;-146.70;92.66
7474;BME280;3778;42.572;23.426;2023-01-27T02:56:00;95837.44;;;-146.70;92.73
7474;BME280;3778;42.572;23.426;2023-01-27T02:58:26;95827.03;;;-146.70;92.86
7474;BME280;3778;42.572;23.426;2023-01-27T03:00:54;95862.47;;;-146.70;92.86
7474;BME280;3778;42.572;23.426;2023-01-27T03:03:21;95904.16;;;-146.70;92.91
7474;BME280;3778;42.572;23.426;2023-01-27T03:05:48;95854.13;;;-146.70;92.91
7474;BME280;3778;42.572;23.426;2023-01-27T03:08:15;95899.97;;;-146.70;93.01
7474;BME280;3778;42.572;23.426;2023-01-27T03:10:42;95829.09;;;-146.70;93.07
7474;BME280;3778;42.572;23.426;2023-01-27T03:13:08;95837.44;;;-146.70;93.24
7474;BME280;3778;42.572;23.426;2023-01-27T03:15:35;95820.75;;;-146.70;93.33
7474;BME280;3778;42.572;23.426;2023-01-27T03:18:21;95845.78;;;-146.70;93.46
7474;BME280;3778;42.572;23.426;2023-01-27T03:20:48;95822.84;;;-146.70;93.57
7474;BME280;3778;42.572;23.426;2023-01-27T03:23:16;95841.59;;;-146.70;93.68
7474;BME280;3778;42.572;23.426;2023-01-27T03:25:45;95856.19;;;-146.70;93.76
7474;BME280;3778;42.572;23.426;2023-01-27T03:28:12;95845.78;;;-146.70;93.83
7474;BME280;3778;42.572;23.426;2023-01-27T03:30:40;95868.72;;;-146.70;93.74
7474;BME280;3778;42.572;23.426;2023-01-27T03:33:06;95858.28;;;-146.70;93.75
7474;BME280;3778;42.572;23.426;2023-01-27T03:35:36;95895.81;;;-146.70;93.76
7474;BME280;3778;42.572;23.426;2023-01-27T03:38:11;95858.28;;;-146.70;93.79
7474;BME280;3778;42.572;23.426;2023-01-27T03:40:55;95845.78;;;-146.70;93.85
7474;BME280;3778;42.572;23.426;2023-01-27T03:43:39;95854.13;;;-146.70;93.80
7474;BME280;3778;42.572;23.426;2023-01-27T03:46:23;95841.59;;;-146.70;93.73
7474;BME280;3778;42.572;23.426;2023-01-27T03:48:52;95883.31;;;-146.70;93.77
7474;BME280;3778;42.572;23.426;2023-01-27T03:51:22;95864.53;;;-146.70;93.70
7474;BME280;3778;42.572;23.426;2023-01-27T03:53:49;95816.59;;;-146.70;93.78
7474;BME280;3778;42.572;23.426;2023-01-27T03:56:18;95854.13;;;-146.70;93.68
7474;BME280;3778;42.572;23.426;2023-01-27T03:58:47;95887.47;;;-146.70;93.64
7474;BME280;3778;42.572;23.426;2023-01-27T04:01:15;95854.13;;;-146.70;93.66
7474;BME280;3778;42.572;23.426;2023-01-27T04:03:43;95818.69;;;-146.70;93.68
7474;BME280;3778;42.572;23.426;2023-01-27T04:06:31;95852.03;;;-146.70;93.72
7474;BME280;3778;42.572;23.426;2023-01-27T04:09:19;95862.47;;;-146.70;93.74
7474;BME280;3778;42.572;23.426;2023-01-27T04:11:46;95808.25;;;-146.70;93.93
7474;BME280;3778;42.572;23.426;2023-01-27T04:14:26;95833.28;;;-146.70;93.87
7474;BME280;3778;42.572;23.426;2023-01-27T04:16:54;95831.19;;;-146.70;93.87
7474;BME280;3778;42.572;23.426;2023-01-27T04:19:21;95856.19;;;-146.70;93.83
7474;BME280;3778;42.572;23.426;2023-01-27T04:21:49;95885.38;;;-146.70;93.82
7474;BME280;3778;42.572;23.426;2023-01-27T04:24:16;95883.31;;;-146.70;93.78
7474;BME280;3778;42.572;23.426;2023-01-27T04:26:50;95854.13;;;-146.70;93.83
7474;BME280;3778;42.572;23.426;2023-01-27T04:29:19;95895.81;;;-146.70;93.86
7474;BME280;3778;42.572;23.426;2023-01-27T04:31:46;95893.72;;;-146.70;93.91
7474;BME280;3778;42.572;23.426;2023-01-27T04:34:13;95845.78;;;-146.70;94.00
7474;BME280;3778;42.572;23.426;2023-01-27T04:36:40;95852.03;;;-146.70;94.06
7474;BME280;3778;42.572;23.426;2023-01-27T04:39:09;95814.50;;;-146.70;94.03
7474;BME280;3778;42.572;23.426;2023-01-27T04:41:36;95858.28;;;-146.70;93.98
7474;BME280;3778;42.572;23.426;2023-01-27T04:44:04;95833.28;;;-146.70;93.90
7474;BME280;3778;42.572;23.426;2023-01-27T04:46:31;95866.63;;;-146.70;94.16
7474;BME280;3778;42.572;23.426;2023-01-27T04:48:58;95852.03;;;-146.70;94.06
7474;BME280;3778;42.572;23.426;2023-01-27T04:51:25;95787.41;;;-146.70;94.06
7474;BME280;3778;42.572;23.426;2023-01-27T04:53:52;95835.34;;;-146.70;93.99
7474;BME280;3778;42.572;23.426;2023-01-27T04:56:25;95841.59;;;-146.70;93.96
7474;BME280;3778;42.572;23.426;2023-01-27T04:58:53;95845.78;;;-146.70;94.00
7474;BME280;3778;42.572;23.426;2023-01-27T05:01:19;95831.19;;;-146.70;93.92
7474;BME280;3778;42.572;23.426;2023-01-27T05:03:46;95852.03;;;-146.70;93.92
7474;BME280;3778;42.572;23.426;2023-01-27T05:06:13;95852.03;;;-146.70;93.86
7474;BME280;3778;42.572;23.426;2023-01-27T05:08:39;95864.53;;;-146.70;93.89
7474;BME280;3778;42.572;23.426;2023-01-27T05:11:06;95862.47;;;-146.70;93.81
7474;BME280;3778;42.572;23.426;2023-01-27T05:13:34;95897.91;;;-146.70;93.72
7474;BME280;3778;42.572;23.426;2023-01-27T05:16:06;95897.91;;;-146.70;93.79
7474;BME280;3778;42.572;23.426;2023-01-27T05:18:34;95841.59;;;-146.70;93.85
7474;BME280;3778;42.572;23.426;2023-01-27T05:21:01;95877.03;;;-146.70;93.78
7474;BME280;3778;42.572;23.426;2023-01-27T05:23:28;95856.19;;;-146.70;93.86
7474;BME280;3778;42.572;23.426;2023-01-27T05:26:02;95904.16;;;-146.70;93.96
7474;BME280;3778;42.572;23.426;2023-01-27T05:28:29;95827.03;;;-146.70;93.81
7474;BME280;3778;42.572;23.426;2023-01-27T05:31:01;95841.59;;;-146.70;93.87
7474;BME280;3778;42.572;23.426;2023-01-27T05:33:28;95820.75;;;-146.70;93.81
7474;BME280;3778;42.572;23.426;2023-01-27T05:35:57;95827.03;;;-146.70;93.76
7474;BME280;3778;42.572;23.426;2023-01-27T05:38:24;95810.34;;;-146.70;93.71
7474;BME280;3778;42.572;23.426;2023-01-27T05:40:54;95854.13;;;-146.70;93.69
7474;BME280;3778;42.572;23.426;2023-01-27T05:43:21;95820.75;;;-146.70;93.68
7474;BME280;3778;42.572;23.426;2023-01-27T05:45:47;95839.53;;;-146.70;93.77
7474;BME280;3778;42.572;23.426;2023-01-27T05:48:15;95902.06;;;-146.70;93.61
7474;BME280;3778;42.572;23.426;2023-01-27T05:50:42;95872.88;;;-146.70;93.61
7474;BME280;3778;42.572;23.426;2023-01-27T05:53:09;95854.13;;;-146.70;93.72
7474;BME280;3778;42.572;23.426;2023-01-27T05:55:35;95829.09;;;-146.70;93.61
7474;BME280;3778;42.572;23.426;2023-01-27T05:58:02;95839.53;;;-146.70;93.58
7474;BME280;3778;42.572;23.426;2023-01-27T06:00:29;95845.78;;;-146.70;93.53
7474;BME280;3778;42.572;23.426;2023-01-27T06:02:55;95866.63;;;-146.70;93.53
7474;BME280;3778;42.572;23.426;2023-01-27T06:05:23;95854.13;;;-146.70;93.42
7474;BME280;3778;42.572;23.426;2023-01-27T06:07:50;95858.28;;;-146.70;93.44
7474;BME280;3778;42.572;23.426;2023-01-27T06:10:17;95887.47;;;-146.70;93.38
7474;BME280;3778;42.572;23.426;2023-01-27T06:12:43;95812.44;;;-146.70;93.24
7474;BME280;3778;42.572;23.426;2023-01-27T06:15:10;95847.88;;;-146.70;93.11
7474;BME280;3778;42.572;23.426;2023-01-27T06:17:37;95893.72;;;-146.70;93.13
7474;BME280;3778;42.572;23.426;2023-01-27T06:20:04;95887.47;;;-146.70;93.07
7474;BME280;3778;42.572;23.426;2023-01-27T06:22:33;95862.47;;;-146.70;93.11
7474;BME280;3778;42.572;23.426;2023-01-27T06:24:59;95879.13;;;-146.70;93.14
7474;BME280;3778;42.572;23.426;2023-01-27T06:27:26;95849.94;;;-146.70;93.16
7474;BME280;3778;42.572;23.426;2023-01-27T06:29:53;95808.25;;;-146.70;93.06
7474;BME280;3778;42.572;23.426;2023-01-27T06:32:19;95814.50;;;-146.70;93.02
7474;BME280;3778;42.572;23.426;2023-01-27T06:34:46;95849.94;;;-146.70;92.91
7474;BME280;3778;42.572;23.426;2023-01-27T06:37:13;95841.59;;;-146.70;93.03
7474;BME280;3778;42.572;23.426;2023-01-27T06:39:41;95862.47;;;-146.70;92.89
7474;BME280;3778;42.572;23.426;2023-01-27T06:42:07;95912.50;;;-146.70;92.86
7474;BME280;3778;42.572;23.426;2023-01-27T06:44:34;95839.53;;;-146.70;92.86
7474;BME280;3778;42.572;23.426;2023-01-27T06:47:01;95854.13;;;-146.70;92.81
7474;BME280;3778;42.572;23.426;2023-01-27T06:49:27;95870.78;;;-146.70;92.65
7474;BME280;3778;42.572;23.426;2023-01-27T06:51:54;95837.44;;;-146.70;92.52
7474;BME280;3778;42.572;23.426;2023-01-27T06:54:21;95822.84;;;-146.70;92.48
7474;BME280;3778;42.572;23.426;2023-01-27T06:56:49;95845.78;;;-146.70;92.41
7474;BME280;3778;42.572;23.426;2023-01-27T06:59:15;95879.13;;;-146.70;92.20
7474;BME280;3778;42.572;23.426;2023-01-27T07:01:42;95799.91;;;-146.70;92.34
7474;BME280;3778;42.572;23.426;2023-01-27T07:04:09;95870.78;;;-146.70;92.43
7474;BME280;3778;42.572;23.426;2023-01-27T07:06:35;95833.28;;;-146.70;92.43
7474;BME280;3778;42.572;23.426;2023-01-27T07:09:02;95833.28;;;-146.70;92.43
7474;BME280;3778;42.572;23.426;2023-01-27T07:11:29;95877.03;;;-146.70;92.48
7474;BME280;3778;42.572;23.426;2023-01-27T07:13:57;95864.53;;;-146.70;92.49
7474;BME280;3778;42.572;23.426;2023-01-27T07:16:24;95831.19;;;-146.70;92.43
7474;BME280;3778;42.572;23.426;2023-01-27T07:18:50;95874.97;;;-146.70;92.45
7474;BME280;3778;42.572;23.426;2023-01-27T07:21:17;95858.28;;;-146.70;92.46
7474;BME280;3778;42.572;23.426;2023-01-27T07:23:44;95774.91;;;-146.70;92.34
7474;BME280;3778;42.572;23.426;2023-01-27T07:26:10;95812.44;;;-146.70;92.20
7474;BME280;3778;42.572;23.426;2023-01-27T07:28:37;95810.34;;;-146.70;91.97
7474;BME280;3778;42.572;23.426;2023-01-27T07:31:05;95835.34;;;-146.70;91.89
7474;BME280;3778;42.572;23.426;2023-01-27T07:33:32;95814.50;;;-146.70;91.67
7474;BME280;3778;42.572;23.426;2023-01-27T07:35:59;95845.78;;;-146.70;91.55
7474;BME280;3778;42.572;23.426;2023-01-27T07:38:25;95854.13;;;-146.70;91.66
7474;BME280;3778;42.572;23.426;2023-01-27T07:40:52;95818.69;;;-146.70;91.67
7474;BME280;3778;42.572;23.426;2023-01-27T07:43:19;95854.13;;;-146.70;91.46
7474;BME280;3778;42.572;23.426;2023-01-27T07:45:45;95849.94;;;-146.70;91.50
7474;BME280;3778;42.572;23.426;2023-01-27T07:48:14;95808.25;;;-146.70;91.30
7474;BME280;3778;42.572;23.426;2023-01-27T07:50:41;95814.50;;;-146.70;91.06
7474;BME280;3778;42.572;23.426;2023-01-27T07:53:09;95839.53;;;-146.70;91.03
7474;BME280;3778;42.572;23.426;2023-01-27T07:55:36;95856.19;;;-146.70;90.59
7474;BME280;3778;42.572;23.426;2023-01-27T07:58:03;95849.94;;;-146.70;90.38
7474;BME280;3778;42.572;23.426;2023-01-27T08:00:30;95877.03;;;-146.70;90.15
7474;BME280;3778;42.572;23.426;2023-01-27T08:02:59;95806.16;;;-146.70;89.67
7474;BME280;3778;42.572;23.426;2023-01-27T08:05:30;95833.28;;;-146.70;89.40
7474;BME280;3778;42.572;23.426;2023-01-27T08:07:57;95766.56;;;-146.70;88.97
7474;BME280;3778;42.572;23.426;2023-01-27T08:10:28;95802.00;;;-146.70;88.79
7474;BME280;3778;42.572;23.426;2023-01-27T08:12:55;95829.09;;;-146.70;88.69
7474;BME280;3778;42.572;23.426;2023-01-27T08:15:22;95845.78;;;-146.70;88.58
7474;BME280;3778;42.572;23.426;2023-01-27T08:17:53;95816.59;;;-146.70;88.83
7474;BME280;3778;42.572;23.426;2023-01-27T08:20:19;95843.69;;;-146.70;88.82
7474;BME280;3778;42.572;23.426;2023-01-27T08:22:47;95837.44;;;-146.70;88.76
7474;BME280;3778;42.572;23.426;2023-01-27T08:25:14;95864.53;;;-146.70;88.65
7474;BME280;3778;42.572;23.426;2023-01-27T08:27:41;95839.53;;;-146.70;88.57
7474;BME280;3778;42.572;23.426;2023-01-27T08:30:09;95777.00;;;-146.70;88.26
7474;BME280;3778;42.572;23.426;2023-01-27T08:32:36;95797.84;;;-146.70;88.30
7474;BME280;3778;42.572;23.426;2023-01-27T08:35:03;95812.44;;;-146.70;88.29
7474;BME280;3778;42.572;23.426;2023-01-27T08:37:29;95845.78;;;-146.70;88.39
7474;BME280;3778;42.572;23.426;2023-01-27T08:39:57;95793.66;;;-146.70;88.39
7474;BME280;3778;42.572;23.426;2023-01-27T08:42:24;95833.28;;;-146.70;88.45
7474;BME280;3778;42.572;23.426;2023-01-27T08:44:51;95772.81;;;-146.70;88.74
7474;BME280;3778;42.572;23.426;2023-01-27T08:47:17;95789.50;;;-146.70;88.67
7474;BME280;3778;42.572;23.426;2023-01-27T08:49:44;95779.06;;;-146.70;88.70
7474;BME280;3778;42.572;23.426;2023-01-27T08:52:12;95812.44;;;-146.70;88.98
7474;BME280;3778;42.572;23.426;2023-01-27T08:54:39;95858.28;;;-146.70;89.24
7474;BME280;3778;42.572;23.426;2023-01-27T08:57:07;95827.03;;;-146.70;89.22
7474;BME280;3778;42.572;23.426;2023-01-27T08:59:34;95814.50;;;-146.70;89.23
7474;BME280;3778;42.572;23.426;2023-01-27T09:02:00;95787.41;;;-146.70;89.39
7474;BME280;3778;42.572;23.426;2023-01-27T09:04:27;95785.31;;;-146.70;89.36
7474;BME280;3778;42.572;23.426;2023-01-27T09:06:55;95839.53;;;-146.70;89.58
7474;BME280;3778;42.572;23.426;2023-01-27T09:09:21;95820.75;;;-146.70;89.81
7474;BME280;3778;42.572;23.426;2023-01-27T09:11:48;95862.47;;;-146.70;89.95
7474;BME280;3778;42.572;23.426;2023-01-27T09:14:16;95837.44;;;-146.70;89.88
7474;BME280;3778;42.572;23.426;2023-01-27T09:16:44;95841.59;;;-146.70;89.98
7474;BME280;3778;42.572;23.426;2023-01-27T09:19:11;95793.66;;;-146.70;90.21
7474;BME280;3778;42.572;23.426;2023-01-27T09:21:37;95812.44;;;-146.70;90.39
7474;BME280;3778;42.572;23.426;2023-01-27T09:24:04;95854.13;;;-146.70;90.55
7474;BME280;3778;42.572;23.426;2023-01-27T09:26:31;95814.50;;;-146.70;90.68
7474;BME280;3778;42.572;23.426;2023-01-27T09:28:57;95814.50;;;-146.70;90.73
7474;BME280;3778;42.572;23.426;2023-01-27T09:31:26;95822.84;;;-146.70;90.75
7474;BME280;3778;42.572;23.426;2023-01-27T09:33:52;95802.00;;;-146.70;90.73
7474;BME280;3778;42.572;23.426;2023-01-27T09:36:20;95783.25;;;-146.70;90.78
7474;BME280;3778;42.572;23.426;2023-01-27T09:38:49;95816.59;;;-146.70;90.77
7474;BME280;3778;42.572;23.426;2023-01-27T09:41:37;95854.13;;;-146.70;90.70
7474;BME280;3778;42.572;23.426;2023-01-27T09:44:19;95799.91;;;-146.70;90.57
7474;BME280;3778;42.572;23.426;2023-01-27T09:47:02;95795.75;;;-146.70;90.61
7474;BME280;3778;42.572;23.426;2023-01-27T09:49:52;95791.59;;;-146.70;90.65
7474;BME280;3778;42.572;23.426;2023-01-27T09:52:35;95854.13;;;-146.70;90.73
7474;BME280;3778;42.572;23.426;2023-01-27T09:55:11;95849.94;;;-146.70;90.91
7474;BME280;3778;42.572;23.426;2023-01-27T09:57:47;95781.16;;;-146.70;90.93
7474;BME280;3778;42.572;23.426;2023-01-27T10:00:27;95856.19;;;-146.70;90.79
7474;BME280;3778;42.572;23.426;2023-01-27T10:06:11;95849.94;;;-146.70;90.51
7474;BME280;3778;42.572;23.426;2023-01-27T10:09:08;95820.75;;;-146.70;90.35
7474;BME280;3778;42.572;23.426;2023-01-27T10:11:49;95822.84;;;-146.70;90.16
7474;BME280;3778;42.572;23.426;2023-01-27T10:14:27;95783.25;;;-146.70;90.04
7474;BME280;3778;42.572;23.426;2023-01-27T10:17:10;95822.84;;;-146.70;90.11
7474;BME280;3778;42.572;23.426;2023-01-27T10:19:57;95835.34;;;-146.70;90.22
7474;BME280;3778;42.572;23.426;2023-01-27T10:22:37;95847.88;;;-146.70;90.21
7474;BME280;3778;42.572;23.426;2023-01-27T10:25:21;95808.25;;;-146.70;90.17
7474;BME280;3778;42.572;23.426;2023-01-27T10:27:55;95847.88;;;-146.70;90.04
7474;BME280;3778;42.572;23.426;2023-01-27T10:30:28;95854.13;;;-146.70;90.10
7474;BME280;3778;42.572;23.426;2023-01-27T10:33:05;95854.13;;;-146.70;90.19
7474;BME280;3778;42.572;23.426;2023-01-27T10:35:40;95816.59;;;-146.70;90.28
7474;BME280;3778;42.572;23.426;2023-01-27T10:38:16;95837.44;;;-146.70;90.41
7474;BME280;3778;42.572;23.426;2023-01-27T10:40:51;95768.66;;;-146.70;90.40
7474;BME280;3778;42.572;23.426;2023-01-27T10:43:32;95783.25;;;-146.70;90.43
7474;BME280;3778;42.572;23.426;2023-01-27T10:46:08;95804.09;;;-146.70;90.25
7474;BME280;3778;42.572;23.426;2023-01-27T10:48:44;95831.19;;;-146.70;90.32
7474;BME280;3778;42.572;23.426;2023-01-27T10:51:13;95852.03;;;-146.70;90.44
7474;BME280;3778;42.572;23.426;2023-01-27T10:53:50;95816.59;;;-146.70;90.62
7474;BME280;3778;42.572;23.426;2023-01-27T10:56:27;95783.25;;;-146.70;90.78
7474;BME280;3778;42.572;23.426;2023-01-27T10:59:02;95829.09;;;-146.70;90.87
7474;BME280;3778;42.572;23.426;2023-01-27T11:01:33;95829.09;;;-146.70;91.14
7474;BME280;3778;42.572;23.426;2023-01-27T11:04:03;95829.09;;;-146.70;91.03
7474;BME280;3778;42.572;23.426;2023-01-27T11:06:36;95829.09;;;-146.70;91.05
7474;BME280;3778;42.572;23.426;2023-01-27T11:09:11;95864.53;;;-146.70;91.09
7474;BME280;3778;42.572;23.426;2023-01-27T11:11:40;95818.69;;;-146.70;91.24
7474;BME280;3778;42.572;23.426;2023-01-27T11:14:14;95858.28;;;-146.70;91.16
7474;BME280;3778;42.572;23.426;2023-01-27T11:16:46;95858.28;;;-146.70;91.45
7474;BME280;3778;42.572;23.426;2023-01-27T11:19:25;95795.75;;;-146.70;91.44
7474;BME280;3778;42.572;23.426;2023-01-27T11:21:56;95833.28;;;-146.70;91.45
7474;BME280;3778;42.572;23.426;2023-01-27T11:24:32;95885.38;;;-146.70;91.42
7474;BME280;3778;42.572;23.426;2023-01-27T11:27:09;95820.75;;;-146.70;91.50
7474;BME280;3778;42.572;23.426;2023-01-27T11:29:44;95808.25;;;-146.70;91.58
7474;BME280;3778;42.572;23.426;2023-01-27T11:32:18;95841.59;;;-146.70;91.62
7474;BME280;3778;42.572;23.426;2023-01-27T11:34:58;95841.59;;;-146.70;91.62
7474;BME280;3778;42.572;23.426;2023-01-27T11:37:30;95810.34;;;-146.70;91.55
7474;BME280;3778;42.572;23.426;2023-01-27T11:39:59;95789.50;;;-146.70;91.54
7474;BME280;3778;42.572;23.426;2023-01-27T11:42:29;95795.75;;;-146.70;91.48
7474;BME280;3778;42.572;23.426;2023-01-27T11:44:57;95824.94;;;-146.70;91.50
7474;BME280;3778;42.572;23.426;2023-01-27T11:47:27;95835.34;;;-146.70;91.48
7474;BME280;3778;42.572;23.426;2023-01-27T11:49:55;95812.44;;;-146.70;91.48
7474;BME280;3778;42.572;23.426;2023-01-27T11:52:23;95881.22;;;-146.70;91.25
7474;BME280;3778;42.572;23.426;2023-01-27T11:54:56;95777.00;;;-146.70;91.11
7474;BME280;3778;42.572;23.426;2023-01-27T11:57:26;95804.09;;;-146.70;90.86
7474;BME280;3778;42.572;23.426;2023-01-27T11:59:56;95812.44;;;-146.70;90.77
7474;BME280;3778;42.572;23.426;2023-01-27T12:02:29;95783.25;;;-146.70;90.63
7474;BME280;3778;42.572;23.426;2023-01-27T12:05:02;95847.88;;;-146.70;90.50
7474;BME280;3778;42.572;23.426;2023-01-27T12:07:41;95854.13;;;-146.70;90.33
7474;BME280;3778;42.572;23.426;2023-01-27T12:10:24;95820.75;;;-146.70;90.27
7474;BME280;3778;42.572;23.426;2023-01-27T12:12:54;95841.59;;;-146.70;90.07
7474;BME280;3778;42.572;23.426;2023-01-27T12:15:21;95847.88;;;-146.70;89.72
7474;BME280;3778;42.572;23.426;2023-01-27T12:17:52;95874.97;;;-146.70;89.40
7474;BME280;3778;42.572;23.426;2023-01-27T12:20:29;95793.66;;;-146.70;89.25
7474;BME280;3778;42.572;23.426;2023-01-27T12:22:59;95816.59;;;-146.70;89.37
7474;BME280;3778;42.572;23.426;2023-01-27T12:25:30;95820.75;;;-146.70;89.30
7474;BME280;3778;42.572;23.426;2023-01-27T12:28:02;95824.94;;;-146.70;89.28
7474;BME280;3778;42.572;23.426;2023-01-27T12:30:32;95812.44;;;-146.70;89.13
7474;BME280;3778;42.572;23.426;2023-01-27T12:33:09;95829.09;;;-146.70;89.09
7474;BME280;3778;42.572;23.426;2023-01-27T12:35:37;95833.28;;;-146.70;89.17
7474;BME280;3778;42.572;23.426;2023-01-27T12:38:11;95787.41;;;-146.70;89.20
7474;BME280;3778;42.572;23.426;2023-01-27T12:40:41;95843.69;;;-146.70;89.36
7474;BME280;3778;42.572;23.426;2023-01-27T12:43:12;95808.25;;;-146.70;89.42
7474;BME280;3778;42.572;23.426;2023-01-27T12:45:40;95833.28;;;-146.70;89.69
7474;BME280;3778;42.572;23.426;2023-01-27T12:48:19;95791.59;;;-146.70;89.97
7474;BME280;3778;42.572;23.426;2023-01-27T12:50:54;95852.03;;;-146.70;90.04
7474;BME280;3778;42.572;23.426;2023-01-27T12:53:23;95820.75;;;-146.70;89.90
7474;BME280;3778;42.572;23.426;2023-01-27T12:55:55;95810.34;;;-146.70;89.74
7474;BME280;3778;42.572;23.426;2023-01-27T12:58:33;95827.03;;;-146.70;89.61
7474;BME280;3778;42.572;23.426;2023-01-27T13:01:03;95818.69;;;-146.70;89.53
7474;BME280;3778;42.572;23.426;2023-01-27T13:03:31;95856.19;;;-146.70;89.47
7474;BME280;3778;42.572;23.426;2023-01-27T13:06:04;95837.44;;;-146.70;89.30
7474;BME280;3778;42.572;23.426;2023-01-27T13:08:32;95768.66;;;-146.70;89.36